sensor_id;sensor_type;location;lat;lon;timestamp;pressure;altitude;pressure_sealevel;temperature
58102;BMP280;52034;51.926;6.320;2023-08-21T00:00:20;102321.91;;;20.96
58102;BMP280;52034;51.926;6.320;2023-08-21T00:01:21;102331.13;;;20.93
58102;BMP280;52034;51.926;6.320;2023-08-21T00:02:21;102324.06;;;20.96
58102;BMP280;52034;51.926;6.320;2023-08-21T00:03:22;102321.16;;;20.94
58102;BMP280;52034;51.926;6.320;2023-08-21T00:04:22;102321.06;;;20.88
58102;BMP280;52034;51.926;6.320;2023-08-21T00:05:22;102323.88;;;20.86
58102;BMP280;52034;51.926;6.320;2023-08-21T00:06:23;102323.88;;;20.86
58102;BMP280;52034;51.926;6.320;2023-08-21T00:07:23;102316.66;;;20.81
58102;BMP280;52034;51.926;6.320;2023-08-21T00:08:23;102332.50;;;20.88
58102;BMP280;52034;51.926;6.320;2023-08-21T00:09:23;102322.56;;;20.93
58102;BMP280;52034;51.926;6.320;2023-08-21T00:10:24;102320.34;;;20.87
58102;BMP280;52034;51.926;6.320;2023-08-21T00:11:24;102319.56;;;20.83
58102;BMP280;52034;51.926;6.320;2023-08-21T00:12:24;102313.91;;;20.87
58102;BMP280;52034;51.926;6.320;2023-08-21T00:13:25;102319.66;;;20.89
58102;BMP280;52034;51.926;6.320;2023-08-21T00:14:25;102323.34;;;20.97
58102;BMP280;52034;51.926;6.320;2023-08-21T00:15:25;102325.53;;;21.01
58102;BMP280;52034;51.926;6.320;2023-08-21T00:16:26;102325.63;;;21.05
58102;BMP280;52034;51.926;6.320;2023-08-21T00:17:28;102333.50;;;21.08
58102;BMP280;52034;51.926;6.320;2023-08-21T00:18:28;102326.44;;;21.11
58102;BMP280;52034;51.926;6.320;2023-08-21T00:19:29;102330.78;;;21.14
58102;BMP280;52034;51.926;6.320;2023-08-21T00:20:29;102330.03;;;21.12
58102;BMP280;52034;51.926;6.320;2023-08-21T00:21:30;102328.56;;;21.11
58102;BMP280;52034;51.926;6.320;2023-08-21T00:22:31;102327.19;;;21.14
58102;BMP280;52034;51.926;6.320;2023-08-21T00:23:31;102333.63;;;21.14
58102;BMP280;52034;51.926;6.320;2023-08-21T00:24:31;102341.53;;;21.16
58102;BMP280;52034;51.926;6.320;2023-08-21T00:25:33;102348.00;;;21.20
58102;BMP280;52034;51.926;6.320;2023-08-21T00:26:33;102336.56;;;21.20
58102;BMP280;52034;51.926;6.320;2023-08-21T00:27:34;102338.69;;;21.20
58102;BMP280;52034;51.926;6.320;2023-08-21T00:28:34;102338.00;;;21.19
58102;BMP280;52034;51.926;6.320;2023-08-21T00:29:35;102349.50;;;21.25
58102;BMP280;52034;51.926;6.320;2023-08-21T00:30:36;102345.91;;;21.23
58102;BMP280;52034;51.926;6.320;2023-08-21T00:31:36;102343.13;;;21.29
58102;BMP280;52034;51.926;6.320;2023-08-21T00:32:37;102338.81;;;21.26
58102;BMP280;52034;51.926;6.320;2023-08-21T00:33:38;102345.25;;;21.28
58102;BMP280;52034;51.926;6.320;2023-08-21T00:34:38;102341.78;;;21.34
58102;BMP280;52034;51.926;6.320;2023-08-21T00:35:38;102348.25;;;21.36
58102;BMP280;52034;51.926;6.320;2023-08-21T00:36:39;102341.16;;;21.39
58102;BMP280;52034;51.926;6.320;2023-08-21T00:37:39;102334.00;;;21.40
58102;BMP280;52034;51.926;6.320;2023-08-21T00:38:39;102326.81;;;21.37
58102;BMP280;52034;51.926;6.320;2023-08-21T00:39:40;102313.19;;;21.32
58102;BMP280;52034;51.926;6.320;2023-08-21T00:40:40;102318.19;;;21.33
58102;BMP280;52034;51.926;6.320;2023-08-21T00:41:40;102325.25;;;21.28
58102;BMP280;52034;51.926;6.320;2023-08-21T00:42:42;102315.16;;;21.21
58102;BMP280;52034;51.926;6.320;2023-08-21T00:43:42;102314.38;;;21.15
58102;BMP280;52034;51.926;6.320;2023-08-21T00:44:42;102320.78;;;21.15
58102;BMP280;52034;51.926;6.320;2023-08-21T00:45:45;102317.88;;;21.11
58102;BMP280;52034;51.926;6.320;2023-08-21T00:46:47;102312.75;;;21.04
58102;BMP280;52034;51.926;6.320;2023-08-21T00:47:49;102315.63;;;21.04
58102;BMP280;52034;51.926;6.320;2023-08-21T00:48:50;102314.13;;;21.01
58102;BMP280;52034;51.926;6.320;2023-08-21T00:49:50;102311.88;;;20.93
58102;BMP280;52034;51.926;6.320;2023-08-21T00:50:51;102311.13;;;20.91
58102;BMP280;52034;51.926;6.320;2023-08-21T00:51:51;102322.56;;;20.93
58102;BMP280;52034;51.926;6.320;2023-08-21T00:52:52;102318.34;;;20.96
58102;BMP280;52034;51.926;6.320;2023-08-21T00:53:53;102315.50;;;20.96
58102;BMP280;52034;51.926;6.320;2023-08-21T00:54:54;102318.34;;;20.96
58102;BMP280;52034;51.926;6.320;2023-08-21T00:55:55;102316.91;;;20.95
58102;BMP280;52034;51.926;6.320;2023-08-21T00:56:55;102320.44;;;20.93
58102;BMP280;52034;51.926;6.320;2023-08-21T00:57:55;102313.25;;;20.92
58102;BMP280;52034;51.926;6.320;2023-08-21T00:58:56;102316.91;;;20.95
58102;BMP280;52034;51.926;6.320;2023-08-21T00:59:56;102315.44;;;20.92
58102;BMP280;52034;51.926;6.320;2023-08-21T01:00:57;102316.84;;;20.93
58102;BMP280;52034;51.926;6.320;2023-08-21T01:01:58;102317.59;;;20.93
58102;BMP280;52034;51.926;6.320;2023-08-21T01:02:58;102317.56;;;20.91
58102;BMP280;52034;51.926;6.320;2023-08-21T01:03:58;102326.19;;;20.95
58102;BMP280;52034;51.926;6.320;2023-08-21T01:04:59;102319.66;;;20.89
58102;BMP280;52034;51.926;6.320;2023-08-21T01:05:59;102323.88;;;20.86
58102;BMP280;52034;51.926;6.320;2023-08-21T01:07:00;102323.84;;;20.84
58102;BMP280;52034;51.926;6.320;2023-08-21T01:08:05;102328.19;;;20.87
58102;BMP280;52034;51.926;6.320;2023-08-21T01:09:13;102327.38;;;20.82
58102;BMP280;52034;51.926;6.320;2023-08-21T01:10:54;102323.84;;;20.84
58102;BMP280;52034;51.926;6.320;2023-08-21T01:12:09;102330.88;;;20.77
58102;BMP280;52034;51.926;6.320;2023-08-21T01:15:04;102322.25;;;20.75
58102;BMP280;52034;51.926;6.320;2023-08-21T01:16:06;102325.09;;;20.73
58102;BMP280;52034;51.926;6.320;2023-08-21T01:17:09;102329.38;;;20.74
58102;BMP280;52034;51.926;6.320;2023-08-21T01:18:13;102326.59;;;20.78
58102;BMP280;52034;51.926;6.320;2023-08-21T01:19:28;102326.66;;;20.80
58102;BMP280;52034;51.926;6.320;2023-08-21T01:20:30;102321.63;;;20.78
58102;BMP280;52034;51.926;6.320;2023-08-21T01:21:31;102325.84;;;20.75
58102;BMP280;52034;51.926;6.320;2023-08-21T01:22:41;102331.72;;;20.85
58102;BMP280;52034;51.926;6.320;2023-08-21T01:23:46;102326.06;;;20.87
58102;BMP280;52034;51.926;6.320;2023-08-21T01:24:47;102326.06;;;20.87
58102;BMP280;52034;51.926;6.320;2023-08-21T01:25:47;102326.88;;;20.92
58102;BMP280;52034;51.926;6.320;2023-08-21T01:26:47;102321.00;;;20.84
58102;BMP280;52034;51.926;6.320;2023-08-21T01:27:49;102325.94;;;20.81
58102;BMP280;52034;51.926;6.320;2023-08-21T01:28:50;102320.88;;;20.76
58102;BMP280;52034;51.926;6.320;2023-08-21T01:29:51;102316.66;;;20.79
58102;BMP280;52034;51.926;6.320;2023-08-21T01:30:59;102328.13;;;20.85
58102;BMP280;52034;51.926;6.320;2023-08-21T01:33:08;102319.50;;;20.81
58102;BMP280;52034;51.926;6.320;2023-08-21T01:34:11;102322.34;;;20.81
58102;BMP280;52034;51.926;6.320;2023-08-21T01:35:12;102318.75;;;20.78
58102;BMP280;52034;51.926;6.320;2023-08-21T01:36:14;102319.44;;;20.77
58102;BMP280;52034;51.926;6.320;2023-08-21T01:37:15;102323.81;;;20.82
58102;BMP280;52034;51.926;6.320;2023-08-21T01:38:16;102323.81;;;20.80
58102;BMP280;52034;51.926;6.320;2023-08-21T01:39:19;102307.34;;;20.78
58102;BMP280;52034;51.926;6.320;2023-08-21T01:40:23;102324.50;;;20.80
58102;BMP280;52034;51.926;6.320;2023-08-21T01:41:24;102312.25;;;20.72
58102;BMP280;52034;51.926;6.320;2023-08-21T01:42:25;102319.44;;;20.77
58102;BMP280;52034;51.926;6.320;2023-08-21T01:43:25;102305.00;;;20.67
58102;BMP280;52034;51.926;6.320;2023-08-21T01:44:26;102317.84;;;20.68
58102;BMP280;52034;51.926;6.320;2023-08-21T01:45:27;102304.16;;;20.60
58102;BMP280;52034;51.926;6.320;2023-08-21T01:46:27;102298.31;;;20.52
58102;BMP280;52034;51.926;6.320;2023-08-21T01:47:27;102307.53;;;20.47
58102;BMP280;52034;51.926;6.320;2023-08-21T01:48:28;102302.41;;;20.41
58102;BMP280;52034;51.926;6.320;2023-08-21T01:49:28;102302.31;;;20.37
58102;BMP280;52034;51.926;6.320;2023-08-21T01:50:28;102285.69;;;20.24
58102;BMP280;52034;51.926;6.320;2023-08-21T01:51:29;102297.09;;;20.24
58102;BMP280;52034;51.926;6.320;2023-08-21T01:52:29;102291.31;;;20.20
58102;BMP280;52034;51.926;6.320;2023-08-21T01:53:29;102295.47;;;20.15
58102;BMP280;52034;51.926;6.320;2023-08-21T01:54:30;102294.13;;;20.18
58102;BMP280;52034;51.926;6.320;2023-08-21T01:55:32;102292.75;;;20.21
58102;BMP280;52034;51.926;6.320;2023-08-21T01:56:32;102299.09;;;20.17
58102;BMP280;52034;51.926;6.320;2023-08-21T01:57:33;102299.84;;;20.18
58102;BMP280;52034;51.926;6.320;2023-08-21T01:58:33;102295.53;;;20.17
58102;BMP280;52034;51.926;6.320;2023-08-21T01:59:34;102297.66;;;20.16
58102;BMP280;52034;51.926;6.320;2023-08-21T02:00:34;102291.31;;;20.20
58102;BMP280;52034;51.926;6.320;2023-08-21T02:01:34;102292.75;;;20.21
58102;BMP280;52034;51.926;6.320;2023-08-21T02:02:35;102299.78;;;20.16
58102;BMP280;52034;51.926;6.320;2023-08-21T02:03:35;102295.53;;;20.17
58102;BMP280;52034;51.926;6.320;2023-08-21T02:04:36;102300.50;;;20.16
58102;BMP280;52034;51.926;6.320;2023-08-21T02:05:39;102299.84;;;20.18
58102;BMP280;52034;51.926;6.320;2023-08-21T02:06:42;102300.44;;;20.14
58102;BMP280;52034;51.926;6.320;2023-08-21T02:07:44;102297.53;;;20.10
58102;BMP280;52034;51.926;6.320;2023-08-21T02:08:44;102301.16;;;20.13
58102;BMP280;52034;51.926;6.320;2023-08-21T02:09:45;102298.97;;;20.09
58102;BMP280;52034;51.926;6.320;2023-08-21T02:10:49;102298.28;;;20.13
58102;BMP280;52034;51.926;6.320;2023-08-21T02:11:50;102299.69;;;20.10
58102;BMP280;52034;51.926;6.320;2023-08-21T02:12:50;102300.38;;;20.08
58102;BMP280;52034;51.926;6.320;2023-08-21T02:13:52;102301.81;;;20.11
58102;BMP280;52034;51.926;6.320;2023-08-21T02:14:52;102308.31;;;20.14
58102;BMP280;52034;51.926;6.320;2023-08-21T02:15:53;102304.72;;;20.13
58102;BMP280;52034;51.926;6.320;2023-08-21T02:16:53;102296.13;;;20.11
58102;BMP280;52034;51.926;6.320;2023-08-21T02:17:54;102305.41;;;20.12
58102;BMP280;52034;51.926;6.320;2023-08-21T02:18:54;102298.97;;;20.11
58102;BMP280;52034;51.926;6.320;2023-08-21T02:19:55;102296.25;;;20.17
58102;BMP280;52034;51.926;6.320;2023-08-21T02:20:55;102304.72;;;20.13
58102;BMP280;52034;51.926;6.320;2023-08-21T02:21:56;102297.53;;;20.08
58102;BMP280;52034;51.926;6.320;2023-08-21T02:22:57;102301.66;;;20.01
58102;BMP280;52034;51.926;6.320;2023-08-21T02:23:57;102294.44;;;19.98
58102;BMP280;52034;51.926;6.320;2023-08-21T02:24:57;102289.22;;;19.85
58102;BMP280;52034;51.926;6.320;2023-08-21T02:25:58;102290.47;;;19.78
58102;BMP280;52034;51.926;6.320;2023-08-21T02:26:58;102306.31;;;19.87
58102;BMP280;52034;51.926;6.320;2023-08-21T02:27:59;102297.66;;;19.81
58102;BMP280;52034;51.926;6.320;2023-08-21T02:28:59;102304.13;;;19.86
58102;BMP280;52034;51.926;6.320;2023-08-21T02:29:59;102299.09;;;19.82
58102;BMP280;52034;51.926;6.320;2023-08-21T02:31:00;102302.03;;;19.86
58102;BMP280;52034;51.926;6.320;2023-08-21T02:32:00;102301.41;;;19.90
58102;BMP280;52034;51.926;6.320;2023-08-21T02:33:00;102304.94;;;19.88
58102;BMP280;52034;51.926;6.320;2023-08-21T02:34:01;102300.72;;;19.91
58102;BMP280;52034;51.926;6.320;2023-08-21T02:35:01;102295.69;;;19.90
58102;BMP280;52034;51.926;6.320;2023-08-21T02:36:02;102310.72;;;19.92
58102;BMP280;52034;51.926;6.320;2023-08-21T02:37:04;102309.97;;;19.92
58102;BMP280;52034;51.926;6.320;2023-08-21T02:38:05;102307.88;;;19.92
58102;BMP280;52034;51.926;6.320;2023-08-21T02:39:09;102305.03;;;19.92
58102;BMP280;52034;51.926;6.320;2023-08-21T02:40:09;102305.75;;;19.94
58102;BMP280;52034;51.926;6.320;2023-08-21T02:41:09;102313.56;;;19.92
58102;BMP280;52034;51.926;6.320;2023-08-21T02:42:10;102304.25;;;19.90
58102;BMP280;52034;51.926;6.320;2023-08-21T02:43:10;102314.31;;;19.94
58102;BMP280;52034;51.926;6.320;2023-08-21T02:44:10;102309.28;;;19.91
58102;BMP280;52034;51.926;6.320;2023-08-21T02:45:11;102306.44;;;19.91
58102;BMP280;52034;51.926;6.320;2023-08-21T02:46:12;102311.38;;;19.91
58102;BMP280;52034;51.926;6.320;2023-08-21T02:47:12;102299.16;;;19.84
58102;BMP280;52034;51.926;6.320;2023-08-21T02:48:12;102299.84;;;19.83
58102;BMP280;52034;51.926;6.320;2023-08-21T02:49:13;102298.28;;;19.78
58102;BMP280;52034;51.926;6.320;2023-08-21T02:50:13;102304.06;;;19.82
58102;BMP280;52034;51.926;6.320;2023-08-21T02:51:13;102301.75;;;19.72
58102;BMP280;52034;51.926;6.320;2023-08-21T02:52:14;102297.22;;;19.61
58102;BMP280;52034;51.926;6.320;2023-08-21T02:53:14;102290.81;;;19.61
58102;BMP280;52034;51.926;6.320;2023-08-21T02:54:14;102300.06;;;19.61
58102;BMP280;52034;51.926;6.320;2023-08-21T02:55:15;102298.00;;;19.64
58102;BMP280;52034;51.926;6.320;2023-08-21T02:56:15;102300.16;;;19.65
58102;BMP280;52034;51.926;6.320;2023-08-21T02:57:16;102295.97;;;19.68
58102;BMP280;52034;51.926;6.320;2023-08-21T02:58:16;102294.63;;;19.71
58102;BMP280;52034;51.926;6.320;2023-08-21T02:59:16;102300.41;;;19.77
58102;BMP280;52034;51.926;6.320;2023-08-21T03:00:17;102293.22;;;19.72
58102;BMP280;52034;51.926;6.320;2023-08-21T03:01:17;102304.75;;;19.80
58102;BMP280;52034;51.926;6.320;2023-08-21T03:02:19;102294.03;;;19.77
58102;BMP280;52034;51.926;6.320;2023-08-21T03:03:19;102298.38;;;19.82
58102;BMP280;52034;51.926;6.320;2023-08-21T03:04:19;102296.16;;;19.78
58102;BMP280;52034;51.926;6.320;2023-08-21T03:05:20;102302.56;;;19.79
58102;BMP280;52034;51.926;6.320;2023-08-21T03:06:20;102295.50;;;19.80
58102;BMP280;52034;51.926;6.320;2023-08-21T03:07:21;102293.31;;;19.78
58102;BMP280;52034;51.926;6.320;2023-08-21T03:08:21;102301.84;;;19.76
58102;BMP280;52034;51.926;6.320;2023-08-21T03:09:21;102298.38;;;19.82
58102;BMP280;52034;51.926;6.320;2023-08-21T03:10:22;102297.69;;;19.83
58102;BMP280;52034;51.926;6.320;2023-08-21T03:11:23;102299.91;;;19.87
58102;BMP280;52034;51.926;6.320;2023-08-21T03:12:24;102304.28;;;19.92
58102;BMP280;52034;51.926;6.320;2023-08-21T03:13:24;102296.41;;;19.90
58102;BMP280;52034;51.926;6.320;2023-08-21T03:14:26;102299.38;;;19.96
58102;BMP280;52034;51.926;6.320;2023-08-21T03:15:26;102287.19;;;19.92
58102;BMP280;52034;51.926;6.320;2023-08-21T03:16:27;102299.34;;;19.94
58102;BMP280;52034;51.926;6.320;2023-08-21T03:17:27;102295.16;;;19.97
58102;BMP280;52034;51.926;6.320;2023-08-21T03:18:31;102306.56;;;19.97
58102;BMP280;52034;51.926;6.320;2023-08-21T03:19:31;102295.84;;;19.96
58102;BMP280;52034;51.926;6.320;2023-08-21T03:20:32;102293.63;;;19.92
58102;BMP280;52034;51.926;6.320;2023-08-21T03:21:32;102306.66;;;20.03
58102;BMP280;52034;51.926;6.320;2023-08-21T03:22:34;102309.56;;;20.05
58102;BMP280;52034;51.926;6.320;2023-08-21T03:23:34;102313.91;;;20.08
58102;BMP280;52034;51.926;6.320;2023-08-21T03:24:34;102313.22;;;20.09
58102;BMP280;52034;51.926;6.320;2023-08-21T03:25:35;102302.56;;;20.10
58102;BMP280;52034;51.926;6.320;2023-08-21T03:26:35;102303.13;;;20.04
58102;BMP280;52034;51.926;6.320;2023-08-21T03:27:35;102294.53;;;20.02
58102;BMP280;52034;51.926;6.320;2023-08-21T03:28:40;102302.28;;;19.98
58102;BMP280;52034;51.926;6.320;2023-08-21T03:29:40;102298.00;;;19.99
58102;BMP280;52034;51.926;6.320;2023-08-21T03:30:41;102298.75;;;19.99
58102;BMP280;52034;51.926;6.320;2023-08-21T03:31:41;102302.34;;;20.02
58102;BMP280;52034;51.926;6.320;2023-08-21T03:32:42;102301.00;;;20.05
58102;BMP280;52034;51.926;6.320;2023-08-21T03:33:43;102308.19;;;20.08
58102;BMP280;52034;51.926;6.320;2023-08-21T03:34:44;102305.94;;;20.02
58102;BMP280;52034;51.926;6.320;2023-08-21T03:35:45;102300.06;;;19.94
58102;BMP280;52034;51.926;6.320;2023-08-21T03:36:46;102302.16;;;19.92
58102;BMP280;52034;51.926;6.320;2023-08-21T03:37:46;102300.69;;;19.89
58102;BMP280;52034;51.926;6.320;2023-08-21T03:38:48;102296.97;;;19.83
58102;BMP280;52034;51.926;6.320;2023-08-21T03:39:48;102299.16;;;19.84
58102;BMP280;52034;51.926;6.320;2023-08-21T03:40:49;102298.44;;;19.84
58102;BMP280;52034;51.926;6.320;2023-08-21T03:41:50;102306.38;;;19.89
58102;BMP280;52034;51.926;6.320;2023-08-21T03:42:51;102305.59;;;19.87
58102;BMP280;52034;51.926;6.320;2023-08-21T03:43:51;102299.16;;;19.86
58102;BMP280;52034;51.926;6.320;2023-08-21T03:44:51;102297.84;;;19.89
58102;BMP280;52034;51.926;6.320;2023-08-21T03:45:52;102307.88;;;19.92
58102;BMP280;52034;51.926;6.320;2023-08-21T03:46:52;102306.47;;;19.93
58102;BMP280;52034;51.926;6.320;2023-08-21T03:47:52;102303.66;;;19.95
58102;BMP280;52034;51.926;6.320;2023-08-21T03:48:54;102305.13;;;19.98
58102;BMP280;52034;51.926;6.320;2023-08-21T03:49:54;102309.44;;;19.99
58102;BMP280;52034;51.926;6.320;2023-08-21T03:50:57;102305.16;;;20.00
58102;BMP280;52034;51.926;6.320;2023-08-21T03:51:57;102303.78;;;20.01
58102;BMP280;52034;51.926;6.320;2023-08-21T03:52:58;102303.72;;;19.99
58102;BMP280;52034;51.926;6.320;2023-08-21T03:53:58;102293.69;;;19.96
58102;BMP280;52034;51.926;6.320;2023-08-21T03:54:59;102294.34;;;19.93
58102;BMP280;52034;51.926;6.320;2023-08-21T03:55:59;102295.69;;;19.90
58102;BMP280;52034;51.926;6.320;2023-08-21T03:57:00;102306.47;;;19.93
58102;BMP280;52034;51.926;6.320;2023-08-21T03:58:01;102299.31;;;19.92
58102;BMP280;52034;51.926;6.320;2023-08-21T03:59:01;102292.81;;;19.88
58102;BMP280;52034;51.926;6.320;2023-08-21T04:00:02;102290.59;;;19.84
58102;BMP280;52034;51.926;6.320;2023-08-21T04:01:03;102294.22;;;19.87
58102;BMP280;52034;51.926;6.320;2023-08-21T04:02:04;102279.84;;;19.81
58102;BMP280;52034;51.926;6.320;2023-08-21T04:03:04;102280.44;;;19.77
58102;BMP280;52034;51.926;6.320;2023-08-21T04:04:04;102278.06;;;19.66
58102;BMP280;52034;51.926;6.320;2023-08-21T04:05:05;102283.22;;;19.73
58102;BMP280;52034;51.926;6.320;2023-08-21T04:06:05;102288.72;;;19.63
58102;BMP280;52034;51.926;6.320;2023-08-21T04:07:07;102280.03;;;19.57
58102;BMP280;52034;51.926;6.320;2023-08-21T04:08:08;102295.75;;;19.60
58102;BMP280;52034;51.926;6.320;2023-08-21T04:09:08;102291.50;;;19.59
58102;BMP280;52034;51.926;6.320;2023-08-21T04:10:08;102288.56;;;19.55
58102;BMP280;52034;51.926;6.320;2023-08-21T04:11:09;102293.66;;;19.61
58102;BMP280;52034;51.926;6.320;2023-08-21T04:12:09;102282.88;;;19.57
58102;BMP280;52034;51.926;6.320;2023-08-21T04:13:10;102285.16;;;19.63
58102;BMP280;52034;51.926;6.320;2023-08-21T04:14:10;102298.91;;;19.72
58102;BMP280;52034;51.926;6.320;2023-08-21T04:15:11;102300.31;;;19.73
58102;BMP280;52034;51.926;6.320;2023-08-21T04:16:11;102286.72;;;19.70
58102;BMP280;52034;51.926;6.320;2023-08-21T04:17:12;102303.25;;;19.77
58102;BMP280;52034;51.926;6.320;2023-08-21T04:18:12;102302.56;;;19.79
58102;BMP280;52034;51.926;6.320;2023-08-21T04:19:12;102307.59;;;19.80
58102;BMP280;52034;51.926;6.320;2023-08-21T04:20:13;102301.13;;;19.78
58102;BMP280;52034;51.926;6.320;2023-08-21T04:21:13;102305.44;;;19.79
58102;BMP280;52034;51.926;6.320;2023-08-21T04:22:13;102304.06;;;19.80
58102;BMP280;52034;51.926;6.320;2023-08-21T04:23:14;102304.72;;;19.78
58102;BMP280;52034;51.926;6.320;2023-08-21T04:24:14;102302.66;;;19.81
58102;BMP280;52034;51.926;6.320;2023-08-21T04:25:15;102306.91;;;19.80
58102;BMP280;52034;51.926;6.320;2023-08-21T04:26:15;102308.94;;;19.77
58102;BMP280;52034;51.926;6.320;2023-08-21T04:27:16;102301.13;;;19.78
58102;BMP280;52034;51.926;6.320;2023-08-21T04:28:16;102308.28;;;19.77
58102;BMP280;52034;51.926;6.320;2023-08-21T04:29:16;102301.28;;;19.84
58102;BMP280;52034;51.926;6.320;2023-08-21T04:30:17;102307.81;;;19.90
58102;BMP280;52034;51.926;6.320;2023-08-21T04:31:17;102308.53;;;19.91
58102;BMP280;52034;51.926;6.320;2023-08-21T04:32:21;102317.16;;;19.94
58102;BMP280;52034;51.926;6.320;2023-08-21T04:33:27;102320.09;;;19.97
58102;BMP280;52034;51.926;6.320;2023-08-21T04:34:28;102311.31;;;19.87
58102;BMP280;52034;51.926;6.320;2023-08-21T04:35:28;102302.50;;;19.75
58102;BMP280;52034;51.926;6.320;2023-08-21T04:36:29;102306.69;;;19.70
58102;BMP280;52034;51.926;6.320;2023-08-21T04:37:31;102305.88;;;19.65
58102;BMP280;52034;51.926;6.320;2023-08-21T04:38:31;102302.91;;;19.61
58102;BMP280;52034;51.926;6.320;2023-08-21T04:39:32;102313.09;;;19.68
58102;BMP280;52034;51.926;6.320;2023-08-21T04:40:32;102313.09;;;19.70
58102;BMP280;52034;51.926;6.320;2023-08-21T04:41:33;102310.97;;;19.71
58102;BMP280;52034;51.926;6.320;2023-08-21T04:42:33;102313.16;;;19.72
58102;BMP280;52034;51.926;6.320;2023-08-21T04:43:34;102311.81;;;19.77
58102;BMP280;52034;51.926;6.320;2023-08-21T04:44:34;102314.63;;;19.75
58102;BMP280;52034;51.926;6.320;2023-08-21T04:45:34;102296.06;;;19.72
58102;BMP280;52034;51.926;6.320;2023-08-21T04:46:37;102303.16;;;19.71
58102;BMP280;52034;51.926;6.320;2023-08-21T04:47:38;102298.09;;;19.68
58102;BMP280;52034;51.926;6.320;2023-08-21T04:48:38;102304.53;;;19.70
58102;BMP280;52034;51.926;6.320;2023-08-21T04:49:39;102305.94;;;19.69
58102;BMP280;52034;51.926;6.320;2023-08-21T04:50:39;102303.72;;;19.66
58102;BMP280;52034;51.926;6.320;2023-08-21T04:51:39;102303.88;;;19.72
58102;BMP280;52034;51.926;6.320;2023-08-21T04:52:40;102306.81;;;19.76
58102;BMP280;52034;51.926;6.320;2023-08-21T04:53:40;102311.91;;;19.81
58102;BMP280;52034;51.926;6.320;2023-08-21T04:54:47;102312.78;;;19.90
58102;BMP280;52034;51.926;6.320;2023-08-21T04:55:48;102306.56;;;19.97
58102;BMP280;52034;51.926;6.320;2023-08-21T04:56:49;102307.91;;;19.94
58102;BMP280;52034;51.926;6.320;2023-08-21T04:57:50;102316.50;;;19.96
58102;BMP280;52034;51.926;6.320;2023-08-21T04:58:50;102312.34;;;20.01
58102;BMP280;52034;51.926;6.320;2023-08-21T04:59:52;102308.50;;;19.89
58102;BMP280;52034;51.926;6.320;2023-08-21T05:00:54;102306.84;;;19.78
58102;BMP280;52034;51.926;6.320;2023-08-21T05:01:54;102308.88;;;19.71
58102;BMP280;52034;51.926;6.320;2023-08-21T05:02:55;102301.69;;;19.68
58102;BMP280;52034;51.926;6.320;2023-08-21T05:03:56;102306.47;;;19.60
58102;BMP280;52034;51.926;6.320;2023-08-21T05:04:58;102303.50;;;19.56
58102;BMP280;52034;51.926;6.320;2023-08-21T05:05:58;102317.34;;;19.69
58102;BMP280;52034;51.926;6.320;2023-08-21T05:06:58;102303.06;;;19.67
58102;BMP280;52034;51.926;6.320;2023-08-21T05:07:59;102316.59;;;19.69
58102;BMP280;52034;51.926;6.320;2023-08-21T05:08:59;102310.91;;;19.67
58102;BMP280;52034;51.926;6.320;2023-08-21T05:10:02;102321.63;;;19.70
58102;BMP280;52034;51.926;6.320;2023-08-21T05:11:05;102317.25;;;19.65
58102;BMP280;52034;51.926;6.320;2023-08-21T05:12:08;102310.75;;;19.61
58102;BMP280;52034;51.926;6.320;2023-08-21T05:13:08;102319.44;;;19.67
58102;BMP280;52034;51.926;6.320;2023-08-21T05:14:09;102317.41;;;19.71
58102;BMP280;52034;51.926;6.320;2023-08-21T05:15:09;102323.19;;;19.75
58102;BMP280;52034;51.926;6.320;2023-08-21T05:16:09;102317.66;;;19.83
58102;BMP280;52034;51.926;6.320;2023-08-21T05:17:12;102319.81;;;19.85
58102;BMP280;52034;51.926;6.320;2023-08-21T05:18:12;102332.91;;;19.96
58102;BMP280;52034;51.926;6.320;2023-08-21T05:19:13;102332.31;;;20.01
58102;BMP280;52034;51.926;6.320;2023-08-21T05:20:13;102329.44;;;20.01
58102;BMP280;52034;51.926;6.320;2023-08-21T05:21:15;102332.41;;;20.07
58102;BMP280;52034;51.926;6.320;2023-08-21T05:22:17;102323.69;;;19.99
58102;BMP280;52034;51.926;6.320;2023-08-21T05:23:17;102327.34;;;20.03
58102;BMP280;52034;51.926;6.320;2023-08-21T05:24:20;102330.97;;;20.06
58102;BMP280;52034;51.926;6.320;2023-08-21T05:25:26;102318.84;;;20.07
58102;BMP280;52034;51.926;6.320;2023-08-21T05:26:26;102328.16;;;20.08
58102;BMP280;52034;51.926;6.320;2023-08-21T05:27:27;102325.31;;;20.08
58102;BMP280;52034;51.926;6.320;2023-08-21T05:28:27;102325.94;;;20.04
58102;BMP280;52034;51.926;6.320;2023-08-21T05:29:28;102323.00;;;20.00
58102;BMP280;52034;51.926;6.320;2023-08-21T05:30:28;102328.72;;;20.00
58102;BMP280;52034;51.926;6.320;2023-08-21T05:31:29;102328.72;;;20.00
58102;BMP280;52034;51.926;6.320;2023-08-21T05:32:29;102318.03;;;20.01
58102;BMP280;52034;51.926;6.320;2023-08-21T05:33:30;102332.41;;;20.07
58102;BMP280;52034;51.926;6.320;2023-08-21T05:34:30;102328.28;;;20.14
58102;BMP280;52034;51.926;6.320;2023-08-21T05:35:35;102330.56;;;20.21
58102;BMP280;52034;51.926;6.320;2023-08-21T05:36:36;102328.53;;;20.28
58102;BMP280;52034;51.926;6.320;2023-08-21T05:37:36;102325.81;;;20.34
58102;BMP280;52034;51.926;6.320;2023-08-21T05:38:37;102334.47;;;20.40
58102;BMP280;52034;51.926;6.320;2023-08-21T05:39:37;102324.44;;;20.37
58102;BMP280;52034;51.926;6.320;2023-08-21T05:40:40;102331.66;;;20.42
58102;BMP280;52034;51.926;6.320;2023-08-21T05:41:40;102331.63;;;20.40
58102;BMP280;52034;51.926;6.320;2023-08-21T05:42:41;102330.16;;;20.37
58102;BMP280;52034;51.926;6.320;2023-08-21T05:43:41;102328.69;;;20.36
58102;BMP280;52034;51.926;6.320;2023-08-21T05:44:43;102335.69;;;20.29
58102;BMP280;52034;51.926;6.320;2023-08-21T05:45:43;102337.03;;;20.24
58102;BMP280;52034;51.926;6.320;2023-08-21T05:46:45;102330.66;;;20.25
58102;BMP280;52034;51.926;6.320;2023-08-21T05:47:45;102336.44;;;20.29
58102;BMP280;52034;51.926;6.320;2023-08-21T05:48:46;102333.66;;;20.33
58102;BMP280;52034;51.926;6.320;2023-08-21T05:49:46;102336.00;;;20.43